Anthem Of The Seas — C6BI7 — position and weather

sailwx.info

Track history (hours):
 
Tides and Currents Weather Stations Pressure Air Temp Water Temp Dewpoint Dewpoint Depression Visibility Wind Speed Wind Dir Waves Ship Positions

Anthem Of The Seas

Last reported at 2018-Jan-20 06:49 UTC. Time now 2018-Jan-20 22:37 UTC.
Position N 39°11' W 074°01'.

Length 348 m; draft 8.8 m.

Type: Passenger vessel. MMSI: 311000274.

Date/timePositionNaut miles runAvg speedWind from/ knotsBaromVisibWave heightAir tempDewpointWater temp
2018-Jan-20 06:49N 39°11' W 074°01'515.5
2018-Jan-20 06:30N 39°15' W 073°59'815.4
2018-Jan-20 06:00N 39°23' W 073°56'815.5
2018-Jan-20 05:30N 39°30' W 073°54'815.3
2018-Jan-20 05:00N 39°38' W 073°52'815.3
2018-Jan-20 04:30N 39°46' W 073°52'815.2
2018-Jan-20 03:58N 39°54' W 073°51'3411.4
2018-Jan-20 00:59N 40°27' W 073°49'714.0
2018-Jan-20 00:30N 40°30' W 073°57'510.0
2018-Jan-20 00:00N 40°34' W 074°02'0 0.4
2018-Jan-19 23:30N 40°34' W 074°02'612.9
2018-Jan-19 23:00N 40°30' W 073°56'4 7.7
2018-Jan-19 22:30N 40°28' W 073°51'5 9.3
2018-Jan-19 22:00N 40°30' W 073°57'714.4
2018-Jan-19 21:30N 40°36' W 074°02'713.2
2018-Jan-19 21:00N 40°42' W 074°02'3 5.3
2018-Jan-19 20:30N 40°40' W 074°03'1 1.6
2018-Jan-19 19:55N 40°40' W 074°04'0 0.0
2018-Jan-19 19:25N 40°40' W 074°04'0 0.0
2018-Jan-19 18:55N 40°40' W 074°04'0 0.0
2018-Jan-19 18:25N 40°40' W 074°04'0 0.0
2018-Jan-19 17:55N 40°40' W 074°04'0 0.0
2018-Jan-19 17:25N 40°40' W 074°04'0 0.0
2018-Jan-19 16:55N 40°40' W 074°04'0 0.0
2018-Jan-19 16:25N 40°40' W 074°04'0 0.0
2018-Jan-19 15:55N 40°40' W 074°04'0 0.0
2018-Jan-19 15:25N 40°40' W 074°04'0 0.0
2018-Jan-19 14:55N 40°40' W 074°04'0 0.0
2018-Jan-19 14:25N 40°40' W 074°04'0 0.0
2018-Jan-19 13:55N 40°40' W 074°04'0 0.0
2018-Jan-19 13:25N 40°40' W 074°04'0 0.0
2018-Jan-19 12:55N 40°40' W 074°04'0 0.0
2018-Jan-19 12:25N 40°40' W 074°04'0 0.0
2018-Jan-19 11:55N 40°40' W 074°04'0 0.0
2018-Jan-19 11:25N 40°40' W 074°04'0 0.0
2018-Jan-19 10:55N 40°40' W 074°04'0 0.0
2018-Jan-19 10:25N 40°40' W 074°04'0 0.0
2018-Jan-19 09:55N 40°40' W 074°04'0 0.0
2018-Jan-19 09:25N 40°40' W 074°04'0 0.0
2018-Jan-19 08:55N 40°40' W 074°04'0 0.0
2018-Jan-19 08:25N 40°40' W 074°04'0 0.0
2018-Jan-19 07:55N 40°40' W 074°04'0 0.0
2018-Jan-19 07:25N 40°40' W 074°04'0 0.0
2018-Jan-19 06:55N 40°40' W 074°04'0 0.0
2018-Jan-19 06:25N 40°40' W 074°04'0 0.0
2018-Jan-19 05:55N 40°40' W 074°04'0 0.0
2018-Jan-19 05:25N 40°40' W 074°04'0 0.0
2018-Jan-19 04:55N 40°40' W 074°04'0 0.0
2018-Jan-19 04:25N 40°40' W 074°04'0 0.0
2018-Jan-19 03:55N 40°40' W 074°04'0 0.0
2018-Jan-19 03:25N 40°40' W 074°04'0 0.0
2018-Jan-19 02:55N 40°40' W 074°04'0 0.0
2018-Jan-19 02:25N 40°40' W 074°04'0 0.0
2018-Jan-19 01:55N 40°40' W 074°04'0 0.0
2018-Jan-19 01:25N 40°40' W 074°04'0 0.3
2018-Jan-19 01:00N 40°40' W 074°04'3 6.8
2018-Jan-19 00:30N 40°37' W 074°03'816.2
2018-Jan-19 00:01N 40°30' W 073°57'815.3
2018-Jan-18 23:29N 40°25' W 073°48'714.4
2018-Jan-18 22:59N 40°18' W 073°47'817.5
2018-Jan-18 22:30N 40°10' W 073°45'1419.2
2018-Jan-18 21:46N 39°56' W 073°42'621.3
2018-Jan-18 21:28N 39°50' W 073°41'1121.2
2018-Jan-18 20:56N 39°38' W 073°43'  
2018-Jan-12 14:57N 17°07' W 061°51'0 0.0
2018-Jan-12 14:30N 17°07' W 061°51'0 0.0
2018-Jan-12 14:00N 17°07' W 061°51'0 0.0
2018-Jan-12 13:30N 17°07' W 061°51'0 0.0
2018-Jan-12 13:00N 17°07' W 061°51'0 0.0
2018-Jan-12 12:30N 17°07' W 061°51'0 0.0
2018-Jan-12 12:00N 17°07' W 061°51'0 0.0
2018-Jan-12 11:30N 17°07' W 061°51'0 0.0
2018-Jan-12 11:00N 17°07' W 061°51'0 0.5
2018-Jan-12 10:30N 17°07' W 061°51'4 8.0
2018-Jan-12 10:00N 17°09' W 061°55'3 5.3
2018-Jan-12 09:30N 17°10' W 061°58'4 8.0
2018-Jan-12 09:00N 17°12' W 062°01'4 8.1
2018-Jan-12 08:30N 17°13' W 062°05'4 8.1
2018-Jan-12 08:00N 17°15' W 062°09'4 8.1
2018-Jan-12 07:30N 17°17' W 062°12'4 8.2
2018-Jan-12 07:00N 17°20' W 062°16'4 8.0
2018-Jan-12 06:30N 17°23' W 062°19'4 8.1
2018-Jan-12 06:00N 17°25' W 062°22'4 8.4
2018-Jan-12 05:30N 17°28' W 062°25'4 8.0
2018-Jan-12 05:00N 17°31' W 062°29'4 8.9
2018-Jan-12 04:30N 17°33' W 062°32'4 8.5
2018-Jan-12 04:00N 17°36' W 062°36'21 8.1
2018-Jan-12 01:29N 17°47' W 062°54'5 8.2
2018-Jan-12 00:55N 17°49' W 062°58'4 8.2
2018-Jan-12 00:29N 17°51' W 063°01'4 8.2
2018-Jan-11 23:57N 17°53' W 063°06'4 8.2
2018-Jan-11 23:28N 17°57' W 063°06'4 8.5
2018-Jan-11 23:00N 18°00' W 063°04'1 1.3
2018-Jan-11 22:04N 18°01' W 063°03'0 0.0
2018-Jan-11 21:49N 18°01' W 063°03'0 0.0
2018-Jan-11 21:22N 18°01' W 063°03'0 0.0
2018-Jan-11 20:49N 18°01' W 063°03'0 0.0
2018-Jan-11 20:22N 18°01' W 063°03'0 0.0
2018-Jan-11 19:34N 18°01' W 063°03'0 0.0
2018-Jan-11 19:22N 18°01' W 063°03'0 0.0
2018-Jan-11 18:55N 18°01' W 063°03'0 0.0
2018-Jan-11 18:25N 18°01' W 063°03'0 0.0
2018-Jan-11 17:49N 18°01' W 063°03'0 0.0
2018-Jan-11 17:25N 18°01' W 063°03'0 0.0
2018-Jan-11 16:25N 18°01' W 063°03'0 0.0
2018-Jan-11 15:58N 18°01' W 063°03'0 0.0
2018-Jan-11 15:22N 18°01' W 063°03'0 0.0
2018-Jan-11 14:40N 18°01' W 063°03'0 0.0
2018-Jan-11 14:28N 18°01' W 063°03'1 2.3
2018-Jan-11 13:56N 18°00' W 063°04'4 9.6
2018-Jan-11 13:30N 18°00' W 063°08'917.2
2018-Jan-11 12:59N 18°02' W 063°18'1019.9
2018-Jan-11 12:30N 18°03' W 063°28'1119.7
2018-Jan-11 11:58N 18°04' W 063°39'1019.8
2018-Jan-11 11:28N 18°05' W 063°49'  
Track history (hours):
 
Tides and Currents Weather Stations Pressure Air Temp Water Temp Dewpoint Dewpoint Depression Visibility Wind Speed Wind Dir Waves Ship Positions

Anthem Of The Seas

Last reported at 2018-Jan-20 06:49 UTC. Time now 2018-Jan-20 22:37 UTC.
Position N 39°11' W 074°01'.

Length 348 m; draft 8.8 m.

Type: Passenger vessel. MMSI: 311000274.

Date/timePositionNaut miles runAvg speedWind from/ knotsBaromVisibWave heightAir tempDewpointWater temp
2018-Jan-20 06:49N 39°11' W 074°01'515.5
2018-Jan-20 06:30N 39°15' W 073°59'815.4
2018-Jan-20 06:00N 39°23' W 073°56'815.5
2018-Jan-20 05:30N 39°30' W 073°54'815.3
2018-Jan-20 05:00N 39°38' W 073°52'815.3
2018-Jan-20 04:30N 39°46' W 073°52'815.2
2018-Jan-20 03:58N 39°54' W 073°51'3411.4
2018-Jan-20 00:59N 40°27' W 073°49'714.0
2018-Jan-20 00:30N 40°30' W 073°57'510.0
2018-Jan-20 00:00N 40°34' W 074°02'0 0.4
2018-Jan-19 23:30N 40°34' W 074°02'612.9
2018-Jan-19 23:00N 40°30' W 073°56'4 7.7
2018-Jan-19 22:30N 40°28' W 073°51'5 9.3
2018-Jan-19 22:00N 40°30' W 073°57'714.4
2018-Jan-19 21:30N 40°36' W 074°02'713.2
2018-Jan-19 21:00N 40°42' W 074°02'3 5.3
2018-Jan-19 20:30N 40°40' W 074°03'1 1.6
2018-Jan-19 19:55N 40°40' W 074°04'0 0.0
2018-Jan-19 19:25N 40°40' W 074°04'0 0.0
2018-Jan-19 18:55N 40°40' W 074°04'0 0.0
2018-Jan-19 18:25N 40°40' W 074°04'0 0.0
2018-Jan-19 17:55N 40°40' W 074°04'0 0.0
2018-Jan-19 17:25N 40°40' W 074°04'0 0.0
2018-Jan-19 16:55N 40°40' W 074°04'0 0.0
2018-Jan-19 16:25N 40°40' W 074°04'0 0.0
2018-Jan-19 15:55N 40°40' W 074°04'0 0.0
2018-Jan-19 15:25N 40°40' W 074°04'0 0.0
2018-Jan-19 14:55N 40°40' W 074°04'0 0.0
2018-Jan-19 14:25N 40°40' W 074°04'0 0.0
2018-Jan-19 13:55N 40°40' W 074°04'0 0.0
2018-Jan-19 13:25N 40°40' W 074°04'0 0.0
2018-Jan-19 12:55N 40°40' W 074°04'0 0.0
2018-Jan-19 12:25N 40°40' W 074°04'0 0.0
2018-Jan-19 11:55N 40°40' W 074°04'0 0.0
2018-Jan-19 11:25N 40°40' W 074°04'0 0.0
2018-Jan-19 10:55N 40°40' W 074°04'0 0.0
2018-Jan-19 10:25N 40°40' W 074°04'0 0.0
2018-Jan-19 09:55N 40°40' W 074°04'0 0.0
2018-Jan-19 09:25N 40°40' W 074°04'0 0.0
2018-Jan-19 08:55N 40°40' W 074°04'0 0.0
2018-Jan-19 08:25N 40°40' W 074°04'0 0.0
2018-Jan-19 07:55N 40°40' W 074°04'0 0.0
2018-Jan-19 07:25N 40°40' W 074°04'0 0.0
2018-Jan-19 06:55N 40°40' W 074°04'0 0.0
2018-Jan-19 06:25N 40°40' W 074°04'0 0.0
2018-Jan-19 05:55N 40°40' W 074°04'0 0.0
2018-Jan-19 05:25N 40°40' W 074°04'0 0.0
2018-Jan-19 04:55N 40°40' W 074°04'0 0.0
2018-Jan-19 04:25N 40°40' W 074°04'0 0.0
2018-Jan-19 03:55N 40°40' W 074°04'0 0.0
2018-Jan-19 03:25N 40°40' W 074°04'0 0.0
2018-Jan-19 02:55N 40°40' W 074°04'0 0.0
2018-Jan-19 02:25N 40°40' W 074°04'0 0.0
2018-Jan-19 01:55N 40°40' W 074°04'0 0.0
2018-Jan-19 01:25N 40°40' W 074°04'0 0.3
2018-Jan-19 01:00N 40°40' W 074°04'3 6.8
2018-Jan-19 00:30N 40°37' W 074°03'816.2
2018-Jan-19 00:01N 40°30' W 073°57'815.3
2018-Jan-18 23:29N 40°25' W 073°48'714.4
2018-Jan-18 22:59N 40°18' W 073°47'817.5
2018-Jan-18 22:30N 40°10' W 073°45'1419.2
2018-Jan-18 21:46N 39°56' W 073°42'621.3
2018-Jan-18 21:28N 39°50' W 073°41'1121.2
2018-Jan-18 20:56N 39°38' W 073°43'  
2018-Jan-12 14:57N 17°07' W 061°51'0 0.0
2018-Jan-12 14:30N 17°07' W 061°51'0 0.0
2018-Jan-12 14:00N 17°07' W 061°51'0 0.0
2018-Jan-12 13:30N 17°07' W 061°51'0 0.0
2018-Jan-12 13:00N 17°07' W 061°51'0 0.0
2018-Jan-12 12:30N 17°07' W 061°51'0 0.0
2018-Jan-12 12:00N 17°07' W 061°51'0 0.0
2018-Jan-12 11:30N 17°07' W 061°51'0 0.0
2018-Jan-12 11:00N 17°07' W 061°51'0 0.5
2018-Jan-12 10:30N 17°07' W 061°51'4 8.0
2018-Jan-12 10:00N 17°09' W 061°55'3 5.3
2018-Jan-12 09:30N 17°10' W 061°58'4 8.0
2018-Jan-12 09:00N 17°12' W 062°01'4 8.1
2018-Jan-12 08:30N 17°13' W 062°05'4 8.1
2018-Jan-12 08:00N 17°15' W 062°09'4 8.1
2018-Jan-12 07:30N 17°17' W 062°12'4 8.2
2018-Jan-12 07:00N 17°20' W 062°16'4 8.0
2018-Jan-12 06:30N 17°23' W 062°19'4 8.1
2018-Jan-12 06:00N 17°25' W 062°22'4 8.4
2018-Jan-12 05:30N 17°28' W 062°25'4 8.0
2018-Jan-12 05:00N 17°31' W 062°29'4 8.9
2018-Jan-12 04:30N 17°33' W 062°32'4 8.5
2018-Jan-12 04:00N 17°36' W 062°36'21 8.1
2018-Jan-12 01:29N 17°47' W 062°54'5 8.2
2018-Jan-12 00:55N 17°49' W 062°58'4 8.2
2018-Jan-12 00:29N 17°51' W 063°01'4 8.2
2018-Jan-11 23:57N 17°53' W 063°06'4 8.2
2018-Jan-11 23:28N 17°57' W 063°06'4 8.5
2018-Jan-11 23:00N 18°00' W 063°04'1 1.3
2018-Jan-11 22:04N 18°01' W 063°03'0 0.0
2018-Jan-11 21:49N 18°01' W 063°03'0 0.0
2018-Jan-11 21:22N 18°01' W 063°03'0 0.0
2018-Jan-11 20:49N 18°01' W 063°03'0 0.0
2018-Jan-11 20:22N 18°01' W 063°03'0 0.0
2018-Jan-11 19:34N 18°01' W 063°03'0 0.0
2018-Jan-11 19:22N 18°01' W 063°03'0 0.0
2018-Jan-11 18:55N 18°01' W 063°03'0 0.0
2018-Jan-11 18:25N 18°01' W 063°03'0 0.0
2018-Jan-11 17:49N 18°01' W 063°03'0 0.0
2018-Jan-11 17:25N 18°01' W 063°03'0 0.0
2018-Jan-11 16:25N 18°01' W 063°03'0 0.0
2018-Jan-11 15:58N 18°01' W 063°03'0 0.0
2018-Jan-11 15:22N 18°01' W 063°03'0 0.0
2018-Jan-11 14:40N 18°01' W 063°03'0 0.0
2018-Jan-11 14:28N 18°01' W 063°03'1 2.3
2018-Jan-11 13:56N 18°00' W 063°04'4 9.6
2018-Jan-11 13:30N 18°00' W 063°08'917.2
2018-Jan-11 12:59N 18°02' W 063°18'1019.9
2018-Jan-11 12:30N 18°03' W 063°28'1119.7
2018-Jan-11 11:58N 18°04' W 063°39'1019.8
2018-Jan-11 11:28N 18°05' W 063°49'  

Dump ship's entire track history